createdAt,value
2023-06-12T00:01:51.150Z,101667.00
2023-06-12T00:04:17.672Z,101668.41
2023-06-12T00:06:45.651Z,101666.22
2023-06-12T00:09:12.486Z,101670.69
2023-06-12T00:11:41.553Z,101660.59
2023-06-12T00:14:08.310Z,101668.41
2023-06-12T00:16:34.971Z,101664.84
2023-06-12T00:19:01.778Z,101661.88
2023-06-12T00:21:28.220Z,101667.16
2023-06-12T00:23:54.695Z,101668.19
2023-06-12T00:26:21.211Z,101658.78
2023-06-12T00:28:47.716Z,101662.22
2023-06-12T00:31:14.196Z,101665.91
2023-06-12T00:33:42.083Z,101664.38
2023-06-12T00:36:08.542Z,101672.66
2023-06-12T00:38:35.935Z,101670.47
2023-06-12T00:41:02.581Z,101667.34
2023-06-12T00:43:29.111Z,101674.47
2023-06-12T00:45:56.298Z,101675.97
2023-06-12T00:48:23.056Z,101673.19
2023-06-12T00:50:49.667Z,101670.53
2023-06-12T00:53:16.142Z,101668.59
2023-06-12T00:55:42.575Z,101672.59
2023-06-12T00:58:09.057Z,101674.28
2023-06-12T01:00:39.436Z,101676.22
2023-06-12T01:03:09.579Z,101671.41
2023-06-12T01:05:39.482Z,101674.47
2023-06-12T01:08:25.425Z,101673.91
2023-06-12T01:10:55.313Z,101663.94
2023-06-12T01:13:22.331Z,101671.28
2023-06-12T01:15:49.437Z,101672.41
2023-06-12T01:18:16.343Z,101670.88
2023-06-12T01:20:43.267Z,101672.78
2023-06-12T01:23:32.504Z,101663.78
2023-06-12T01:26:11.053Z,101669.13
2023-06-12T01:28:48.053Z,101662.72
2023-06-12T01:31:44.358Z,101664.84
2023-06-12T01:34:16.239Z,101667.56
2023-06-12T01:36:49.889Z,101673.13
2023-06-12T01:39:17.038Z,101670.78
2023-06-12T01:41:44.805Z,101665.38
2023-06-12T01:44:11.662Z,101668.50
2023-06-12T01:46:38.938Z,101668.13
2023-06-12T01:49:07.235Z,101670.63
2023-06-12T01:51:34.093Z,101671.66
2023-06-12T01:54:01.987Z,101668.69
2023-06-12T01:56:28.763Z,101671.38
2023-06-12T01:58:55.824Z,101669.16
2023-06-12T02:01:24.930Z,101675.41
2023-06-12T02:03:51.808Z,101676.25
2023-06-12T02:06:18.437Z,101673.31
2023-06-12T02:08:45.288Z,101681.25
2023-06-12T02:11:11.855Z,101684.75
2023-06-12T02:13:38.262Z,101685.19
2023-06-12T02:16:07.392Z,101680.72
2023-06-12T02:18:34.491Z,101684.38
2023-06-12T02:21:01.008Z,101678.94
2023-06-12T02:23:27.501Z,101678.19
2023-06-12T02:25:53.903Z,101685.31
2023-06-12T02:28:20.328Z,101690.63
2023-06-12T02:30:46.737Z,101683.00
2023-06-12T02:33:14.197Z,101687.13
2023-06-12T02:35:41.031Z,101679.25
2023-06-12T02:38:07.594Z,101682.97
2023-06-12T02:40:34.127Z,101690.84
2023-06-12T02:43:00.987Z,101685.81
2023-06-12T02:45:27.605Z,101690.09
2023-06-12T02:47:54.050Z,101686.88
2023-06-12T02:50:20.522Z,101694.53
2023-06-12T02:52:47.236Z,101690.56
2023-06-12T02:55:13.699Z,101688.97
2023-06-12T02:57:40.180Z,101695.03
2023-06-12T03:00:07.445Z,101692.22
2023-06-12T03:02:34.229Z,101690.81
2023-06-12T03:05:00.798Z,101697.50
2023-06-12T03:07:29.759Z,101691.25
2023-06-12T03:09:56.307Z,101694.50
2023-06-12T03:12:22.739Z,101697.94
2023-06-12T03:14:50.549Z,101693.09
2023-06-12T03:17:17.063Z,101697.13
2023-06-12T03:19:45.658Z,101697.34
2023-06-12T03:22:12.104Z,101692.09
2023-06-12T03:24:38.636Z,101689.06
2023-06-12T03:27:05.974Z,101688.25
2023-06-12T03:29:32.518Z,101686.03
2023-06-12T03:31:59.085Z,101689.88
2023-06-12T03:34:25.825Z,101692.50
2023-06-12T03:36:52.354Z,101687.03
2023-06-12T03:39:18.833Z,101695.88
2023-06-12T03:41:58.972Z,101693.38
2023-06-12T03:44:25.800Z,101696.03
2023-06-12T03:46:52.282Z,101696.47
2023-06-12T03:49:18.740Z,101693.78
2023-06-12T03:51:45.519Z,101700.03
2023-06-12T03:54:12.773Z,101696.31
2023-06-12T03:56:39.258Z,101704.13
2023-06-12T03:59:06.177Z,101700.22
2023-06-12T04:01:32.603Z,101708.31
2023-06-12T04:03:59.223Z,101706.25
2023-06-12T04:06:25.889Z,101699.19
2023-06-12T04:08:55.191Z,101707.50
2023-06-12T04:11:23.045Z,101703.72
2023-06-12T04:13:49.507Z,101699.47
2023-06-12T04:16:16.359Z,101704.22
2023-06-12T04:18:43.757Z,101705.63
2023-06-12T04:21:10.301Z,101695.06
2023-06-12T04:23:38.482Z,101707.38
2023-06-12T04:26:08.049Z,101697.41
2023-06-12T04:28:36.676Z,101707.34
2023-06-12T04:31:03.956Z,101696.25
2023-06-12T04:33:31.469Z,101698.72
2023-06-12T04:35:59.619Z,101699.59
2023-06-12T04:38:26.414Z,101702.91
2023-06-12T04:40:55.216Z,101700.00
2023-06-12T04:43:22.525Z,101695.44
2023-06-12T04:45:49.698Z,101704.66
2023-06-12T04:48:16.434Z,101701.03
2023-06-12T04:50:43.056Z,101700.66
2023-06-12T04:53:09.704Z,101698.22
2023-06-12T04:55:36.237Z,101695.16
2023-06-12T04:58:03.233Z,101698.06
2023-06-12T05:00:30.071Z,101702.03
2023-06-12T05:02:56.949Z,101701.72
2023-06-12T05:05:23.458Z,101702.84
2023-06-12T05:07:49.898Z,101695.66
2023-06-12T05:10:16.972Z,101698.06
2023-06-12T05:12:43.681Z,101700.47
2023-06-12T05:15:10.894Z,101707.94
2023-06-12T05:17:38.674Z,101699.66
2023-06-12T05:20:10.032Z,101703.91
2023-06-12T05:22:37.452Z,101697.78
2023-06-12T05:25:04.904Z,101701.16
2023-06-12T05:27:31.515Z,101709.47
2023-06-12T05:29:57.957Z,101702.00
2023-06-12T05:32:24.465Z,101706.81
2023-06-12T05:34:51.370Z,101702.13
2023-06-12T05:37:18.018Z,101696.38
2023-06-12T05:39:44.480Z,101708.06
2023-06-12T05:42:11.319Z,101701.03
2023-06-12T05:44:38.028Z,101700.63
2023-06-12T05:47:04.618Z,101705.53
2023-06-12T05:49:31.110Z,101702.16
2023-06-12T05:51:57.739Z,101704.59
2023-06-12T05:54:24.184Z,101708.91
2023-06-12T05:56:50.579Z,101702.94
2023-06-12T05:59:17.043Z,101706.00
2023-06-12T06:01:43.508Z,101708.75
2023-06-12T06:04:12.648Z,101715.78
2023-06-12T06:06:39.777Z,101713.06
2023-06-12T06:09:09.210Z,101709.22
2023-06-12T06:11:35.815Z,101711.78
2023-06-12T06:14:02.397Z,101718.34
2023-06-12T06:16:36.889Z,101712.41
2023-06-12T06:19:15.392Z,101717.13
2023-06-12T06:21:41.975Z,101717.13
2023-06-12T06:24:08.897Z,101724.56
2023-06-12T06:26:35.439Z,101722.91
2023-06-12T06:29:12.708Z,101725.25
2023-06-12T06:31:41.218Z,101728.47
2023-06-12T06:34:07.784Z,101723.50
2023-06-12T06:36:34.311Z,101717.41
2023-06-12T06:39:00.892Z,101723.19
2023-06-12T06:41:28.017Z,101722.56
2023-06-12T06:43:54.706Z,101719.53
2023-06-12T06:46:21.268Z,101717.97
2023-06-12T06:48:47.753Z,101724.72
2023-06-12T06:51:16.648Z,101713.50
2023-06-12T06:53:43.110Z,101719.31
2023-06-12T06:56:09.689Z,101719.44
2023-06-12T06:58:36.123Z,101715.50
2023-06-12T07:01:02.650Z,101716.38
2023-06-12T07:03:29.229Z,101713.56
2023-06-12T07:05:55.852Z,101711.78
2023-06-12T07:08:22.340Z,101705.50
2023-06-12T07:10:48.765Z,101705.50
2023-06-12T07:13:15.499Z,101709.09
2023-06-12T07:15:42.060Z,101712.56
2023-06-12T07:18:08.682Z,101716.53
2023-06-12T07:20:35.248Z,101709.50
2023-06-12T07:23:01.728Z,101711.47
2023-06-12T07:25:28.627Z,101704.31
2023-06-12T07:27:55.100Z,101712.56
2023-06-12T07:30:21.628Z,101707.44
2023-06-12T07:32:48.115Z,101701.25
2023-06-12T07:35:15.976Z,101703.44
2023-06-12T07:37:44.072Z,101709.19
2023-06-12T07:40:11.169Z,101701.13
2023-06-12T07:42:37.732Z,101700.13
2023-06-12T07:45:04.971Z,101705.44
2023-06-12T07:47:31.610Z,101708.50
2023-06-12T07:49:59.610Z,101703.22
2023-06-12T07:52:26.208Z,101702.09
2023-06-12T07:54:53.020Z,101709.84
2023-06-12T07:57:19.469Z,101705.06
2023-06-12T07:59:47.607Z,101707.91
2023-06-12T08:02:16.016Z,101702.34
2023-06-12T08:04:43.809Z,101705.03
2023-06-12T08:07:12.679Z,101704.25
2023-06-12T08:09:41.418Z,101707.88
2023-06-12T08:12:08.721Z,101707.72
2023-06-12T08:14:35.252Z,101702.66
2023-06-12T08:17:01.763Z,101692.53
2023-06-12T08:19:29.636Z,101701.28
2023-06-12T08:21:56.501Z,101697.97
2023-06-12T08:24:23.399Z,101696.69
2023-06-12T08:26:50.172Z,101695.19
2023-06-12T08:29:16.939Z,101688.72
2023-06-12T08:31:43.472Z,101695.53
2023-06-12T08:34:09.899Z,101699.53
2023-06-12T08:36:37.922Z,101689.91
2023-06-12T08:39:04.901Z,101706.25
2023-06-12T08:41:37.070Z,101695.69
2023-06-12T08:44:03.741Z,101696.56
2023-06-12T08:46:31.965Z,101688.84
2023-06-12T08:49:02.040Z,101695.56
2023-06-12T08:51:29.992Z,101685.22
2023-06-12T08:53:57.736Z,101685.22
2023-06-12T08:56:25.346Z,101674.88
2023-06-12T08:58:51.849Z,101682.88
2023-06-12T09:01:19.319Z,101684.72
2023-06-12T09:03:51.296Z,101685.44
2023-06-12T09:06:20.045Z,101680.88
2023-06-12T09:08:46.773Z,101673.31
2023-06-12T09:11:13.419Z,101678.22
2023-06-12T09:13:42.187Z,101678.94
2023-06-12T09:16:17.750Z,101678.41
2023-06-12T09:18:52.497Z,101681.84
2023-06-12T09:21:22.283Z,101671.59
2023-06-12T09:23:53.650Z,101676.63
2023-06-12T09:26:23.114Z,101671.63
2023-06-12T09:28:53.911Z,101665.03
2023-06-12T09:31:21.068Z,101670.38
2023-06-12T09:33:51.479Z,101656.81
2023-06-12T09:36:20.475Z,101662.50
2023-06-12T09:38:48.618Z,101657.38
2023-06-12T09:41:15.132Z,101661.72
2023-06-12T09:43:41.593Z,101658.88
2023-06-12T09:46:09.654Z,101660.91
2023-06-12T09:51:22.627Z,101661.38
2023-06-12T09:53:52.000Z,101666.47
2023-06-12T09:56:18.841Z,101655.94
2023-06-12T09:58:49.062Z,101659.47
2023-06-12T10:01:19.026Z,101660.28
2023-06-12T10:03:49.143Z,101666.50
2023-06-12T10:06:18.333Z,101658.00
2023-06-12T10:08:45.140Z,101658.97
2023-06-12T10:11:13.472Z,101665.94
2023-06-12T10:13:40.540Z,101665.69
2023-06-12T10:16:08.085Z,101662.25
2023-06-12T10:18:35.407Z,101667.88
2023-06-12T10:21:03.947Z,101657.31
2023-06-12T10:23:34.503Z,101657.66
2023-06-12T10:26:02.783Z,101658.25
2023-06-12T10:28:29.651Z,101651.28
2023-06-12T10:31:13.309Z,101653.56
2023-06-12T10:33:57.018Z,101643.06
2023-06-12T10:36:24.198Z,101646.09
2023-06-12T10:39:02.965Z,101639.72
2023-06-12T10:41:36.673Z,101651.28
2023-06-12T10:44:32.261Z,101644.88
2023-06-12T10:47:02.514Z,101629.78
2023-06-12T10:49:29.379Z,101630.97
2023-06-12T10:51:56.077Z,101629.31
2023-06-12T10:54:27.130Z,101619.09
2023-06-12T10:57:04.216Z,101623.63
2023-06-12T10:59:39.902Z,101625.91
2023-06-12T11:02:06.524Z,101624.69
2023-06-12T11:04:38.606Z,101621.94
2023-06-12T11:07:06.041Z,101618.69
2023-06-12T11:09:42.281Z,101615.84
2023-06-12T11:12:09.218Z,101614.25
2023-06-12T11:14:35.740Z,101615.34
2023-06-12T11:17:02.395Z,101612.44
2023-06-12T11:19:29.640Z,101617.69
2023-06-12T11:21:57.006Z,101611.50
2023-06-12T11:24:24.506Z,101609.28
2023-06-12T11:26:52.005Z,101613.25
2023-06-12T11:29:21.243Z,101608.75
2023-06-12T11:31:52.120Z,101604.72
2023-06-12T11:34:18.599Z,101608.13
2023-06-12T11:36:45.162Z,101606.13
2023-06-12T11:41:50.655Z,101612.38
2023-06-12T11:44:17.711Z,101605.59
2023-06-12T11:46:45.135Z,101609.97
2023-06-12T11:49:14.067Z,101602.78
2023-06-12T11:51:40.932Z,101592.47
2023-06-12T11:54:08.928Z,101586.81
2023-06-12T11:59:04.876Z,101590.66
2023-06-12T12:01:37.776Z,101582.56
2023-06-12T12:04:06.201Z,101578.00
2023-06-12T12:06:49.194Z,101576.94
2023-06-12T12:09:16.030Z,101581.72
2023-06-12T12:11:42.621Z,101571.84
2023-06-12T12:14:09.201Z,101573.91
2023-06-12T12:16:41.223Z,101566.38
2023-06-12T12:19:27.442Z,101566.19
2023-06-12T12:21:56.300Z,101569.34
2023-06-12T12:24:23.172Z,101564.44
2023-06-12T12:26:52.361Z,101568.19
2023-06-12T12:29:19.598Z,101558.97
2023-06-12T12:31:46.576Z,101560.75
2023-06-12T12:34:13.404Z,101557.84
2023-06-12T12:36:41.672Z,101560.63
2023-06-12T12:39:08.246Z,101554.59
2023-06-12T12:41:36.439Z,101558.06
2023-06-12T12:44:02.943Z,101555.28
2023-06-12T12:46:29.757Z,101559.06
2023-06-12T12:48:56.315Z,101558.72
2023-06-12T12:51:22.822Z,101547.84
2023-06-12T12:53:49.246Z,101544.25
2023-06-12T12:56:15.721Z,101543.94
2023-06-12T12:58:43.788Z,101543.59
2023-06-12T13:01:10.985Z,101539.44
2023-06-12T13:03:39.526Z,101541.47
2023-06-12T13:06:11.798Z,101534.50
2023-06-12T13:08:39.011Z,101538.78
2023-06-12T13:11:05.517Z,101535.97
2023-06-12T13:13:33.390Z,101531.63
2023-06-12T13:16:00.327Z,101532.06
2023-06-12T13:18:26.897Z,101530.78
2023-06-12T13:20:54.666Z,101519.44
2023-06-12T13:23:21.622Z,101523.94
2023-06-12T13:25:48.085Z,101533.22
2023-06-12T13:28:14.759Z,101525.31
2023-06-12T13:30:41.177Z,101527.97
2023-06-12T13:33:07.791Z,101532.75
2023-06-12T13:35:36.765Z,101524.91
2023-06-12T13:38:04.809Z,101523.81
2023-06-12T13:40:31.362Z,101526.22
2023-06-12T13:42:57.812Z,101523.31
2023-06-12T13:45:24.643Z,101524.38
2023-06-12T13:47:51.121Z,101522.19
2023-06-12T13:50:17.612Z,101512.13
2023-06-12T13:52:46.036Z,101515.59
2023-06-12T13:55:12.453Z,101516.84
2023-06-12T13:57:40.192Z,101514.22
2023-06-12T14:00:08.868Z,101515.97
2023-06-12T14:02:35.456Z,101510.88
2023-06-12T14:05:02.432Z,101509.91
2023-06-12T14:07:29.366Z,101515.22
2023-06-12T14:09:55.869Z,101510.41
2023-06-12T14:12:24.070Z,101511.06
2023-06-12T14:14:50.592Z,101514.75
2023-06-12T14:17:18.305Z,101515.75
2023-06-12T14:19:45.010Z,101501.50
2023-06-12T14:22:13.342Z,101500.41
2023-06-12T14:24:41.219Z,101497.81
2023-06-12T14:27:08.327Z,101495.97
2023-06-12T14:29:35.092Z,101494.81
2023-06-12T14:32:01.595Z,101493.59
2023-06-12T14:34:28.171Z,101485.69
2023-06-12T14:36:54.643Z,101488.69
2023-06-12T14:39:21.195Z,101486.97
2023-06-12T14:41:47.732Z,101495.94
2023-06-12T14:44:16.277Z,101477.72
2023-06-12T14:46:43.208Z,101487.50
2023-06-12T14:49:09.931Z,101485.72
2023-06-12T14:51:36.431Z,101484.28
2023-06-12T14:54:02.902Z,101473.50
2023-06-12T14:56:29.757Z,101465.63
2023-06-12T14:58:56.402Z,101470.34
2023-06-12T15:01:23.019Z,101467.47
2023-06-12T15:03:51.232Z,101465.34
2023-06-12T15:06:17.896Z,101464.31
2023-06-12T15:08:46.733Z,101469.88
2023-06-12T15:11:13.566Z,101472.59
2023-06-12T15:13:39.999Z,101460.53
2023-06-12T15:16:06.706Z,101467.34
2023-06-12T15:18:44.136Z,101462.75
2023-06-12T15:21:11.463Z,101464.97
2023-06-12T15:23:38.038Z,101454.84
2023-06-12T15:26:04.643Z,101467.59
2023-06-12T15:28:33.145Z,101460.63
2023-06-12T15:30:59.887Z,101456.69
2023-06-12T15:33:26.375Z,101454.22
2023-06-12T15:35:52.801Z,101461.97
2023-06-12T15:38:34.397Z,101462.09
2023-06-12T15:41:01.867Z,101454.91
2023-06-12T15:43:28.547Z,101458.59
2023-06-12T15:45:57.141Z,101457.41
2023-06-12T15:48:24.107Z,101455.41
2023-06-12T15:50:50.630Z,101453.09
2023-06-12T15:53:17.106Z,101454.13
2023-06-12T15:55:43.723Z,101451.13
2023-06-12T15:58:10.700Z,101450.59
2023-06-12T16:00:37.215Z,101452.16
2023-06-12T16:03:04.098Z,101448.53
2023-06-12T16:05:30.554Z,101449.13
2023-06-12T16:07:57.012Z,101439.34
2023-06-12T16:10:26.181Z,101444.97
2023-06-12T16:12:55.785Z,101442.84
2023-06-12T16:15:22.231Z,101446.94
2023-06-12T16:17:48.945Z,101439.63
2023-06-12T16:20:15.716Z,101439.59
2023-06-12T16:22:42.115Z,101436.19
2023-06-12T16:25:09.054Z,101430.84
2023-06-12T16:27:35.516Z,101433.13
2023-06-12T16:30:02.624Z,101435.03
2023-06-12T16:32:29.204Z,101437.06
2023-06-12T16:34:55.795Z,101429.97
2023-06-12T16:37:23.637Z,101433.03
2023-06-12T16:40:10.946Z,101425.47
2023-06-12T16:42:38.670Z,101432.59
2023-06-12T16:45:08.872Z,101426.50
2023-06-12T16:47:36.545Z,101431.34
2023-06-12T16:50:03.591Z,101423.69
2023-06-12T16:52:30.058Z,101422.56
2023-06-12T16:54:56.758Z,101416.72
2023-06-12T16:57:23.288Z,101426.97
2023-06-12T16:59:50.019Z,101417.25
2023-06-12T17:02:18.576Z,101425.06
2023-06-12T17:04:46.223Z,101420.97
2023-06-12T17:07:13.318Z,101422.19
2023-06-12T17:09:40.836Z,101419.66
2023-06-12T17:12:08.182Z,101423.81
2023-06-12T17:14:36.408Z,101409.88
2023-06-12T17:17:04.409Z,101427.63
2023-06-12T17:19:31.035Z,101421.47
2023-06-12T17:21:58.558Z,101423.00
2023-06-12T17:24:25.378Z,101425.06
2023-06-12T17:26:52.075Z,101427.03
2023-06-12T17:29:18.651Z,101430.56
2023-06-12T17:31:45.083Z,101429.03
2023-06-12T17:34:11.602Z,101425.59
2023-06-12T17:36:38.328Z,101419.91
2023-06-12T17:39:04.733Z,101419.28
2023-06-12T17:41:31.825Z,101421.09
2023-06-12T17:43:58.362Z,101419.16
2023-06-12T17:46:24.835Z,101417.31
2023-06-12T17:48:51.403Z,101423.56
2023-06-12T17:51:18.049Z,101418.56
2023-06-12T17:53:44.557Z,101425.38
2023-06-12T17:56:13.192Z,101415.06
2023-06-12T17:58:40.841Z,101419.34
2023-06-12T18:01:07.815Z,101406.34
2023-06-12T18:03:34.306Z,101418.97
2023-06-12T18:06:00.820Z,101413.13
2023-06-12T18:08:27.738Z,101412.38
2023-06-12T18:10:58.904Z,101408.16
2023-06-12T18:13:25.298Z,101425.53
2023-06-12T18:15:51.860Z,101412.19
2023-06-12T18:18:18.455Z,101414.91
2023-06-12T18:20:44.969Z,101415.53
2023-06-12T18:23:11.424Z,101418.19
2023-06-12T18:25:37.855Z,101420.13
2023-06-12T18:28:04.389Z,101420.19
2023-06-12T18:30:30.963Z,101422.63
2023-06-12T18:32:59.153Z,101421.59
2023-06-12T18:35:26.204Z,101422.16
2023-06-12T18:37:53.926Z,101426.97
2023-06-12T18:40:21.176Z,101421.19
2023-06-12T18:42:47.584Z,101424.41
2023-06-12T18:45:14.305Z,101426.84
2023-06-12T18:47:41.462Z,101431.41
2023-06-12T18:50:08.162Z,101430.41
2023-06-12T18:52:35.951Z,101430.16
2023-06-12T18:55:04.582Z,101428.84
2023-06-12T18:57:31.310Z,101440.59
2023-06-12T18:59:57.737Z,101432.91
2023-06-12T19:02:25.859Z,101439.06
2023-06-12T19:04:52.337Z,101443.06
2023-06-12T19:07:18.890Z,101443.63
2023-06-12T19:09:45.573Z,101450.00
2023-06-12T19:12:12.046Z,101442.06
2023-06-12T19:14:38.558Z,101451.16
2023-06-12T19:17:06.172Z,101461.28
2023-06-12T19:19:32.678Z,101456.50
2023-06-12T19:21:59.348Z,101454.38
2023-06-12T19:24:26.103Z,101463.69
2023-06-12T19:26:52.571Z,101466.84
2023-06-12T19:29:19.002Z,101461.81
2023-06-12T19:31:45.508Z,101474.03
2023-06-12T19:34:12.047Z,101467.09
2023-06-12T19:36:38.548Z,101467.06
2023-06-12T19:39:05.243Z,101475.28
2023-06-12T19:41:32.508Z,101483.44
2023-06-12T19:43:58.936Z,101485.00
2023-06-12T19:46:27.584Z,101486.59
2023-06-12T19:48:54.295Z,101483.44
2023-06-12T19:51:21.765Z,101490.81
2023-06-12T19:53:48.465Z,101497.19
2023-06-12T19:56:14.944Z,101499.63
2023-06-12T19:58:41.374Z,101498.03
2023-06-12T20:01:07.814Z,101506.25
2023-06-12T20:03:34.273Z,101505.97
2023-06-12T20:06:01.361Z,101506.44
2023-06-12T20:08:28.378Z,101502.59
2023-06-12T20:10:54.796Z,101510.75
2023-06-12T20:13:21.258Z,101505.22
2023-06-12T20:15:47.763Z,101517.91
2023-06-12T20:18:14.588Z,101516.84
2023-06-12T20:20:41.133Z,101524.78
2023-06-12T20:23:10.062Z,101524.78
2023-06-12T20:25:36.789Z,101528.22
2023-06-12T20:28:03.890Z,101518.56
2023-06-12T20:30:30.677Z,101525.16
2023-06-12T20:32:57.328Z,101519.81
2023-06-12T20:35:24.319Z,101531.72
2023-06-12T20:37:50.773Z,101529.03
2023-06-12T20:40:17.393Z,101533.22
2023-06-12T20:42:43.892Z,101537.94
2023-06-12T20:45:11.022Z,101536.53
2023-06-12T20:47:37.680Z,101538.41
2023-06-12T20:50:04.280Z,101545.50
2023-06-12T20:52:30.939Z,101538.53
2023-06-12T20:54:57.572Z,101543.03
2023-06-12T20:57:24.000Z,101546.94
2023-06-12T20:59:51.317Z,101549.78
2023-06-12T21:02:17.909Z,101549.94
2023-06-12T21:04:44.372Z,101550.38
2023-06-12T21:07:11.190Z,101550.22
2023-06-12T21:09:37.564Z,101550.34
2023-06-12T21:12:04.328Z,101555.56
2023-06-12T21:14:30.976Z,101554.13
2023-06-12T21:16:57.399Z,101555.56
2023-06-12T21:19:23.851Z,101559.75
2023-06-12T21:21:50.408Z,101551.56
2023-06-12T21:24:17.534Z,101552.56
2023-06-12T21:26:44.994Z,101549.69
2023-06-12T21:29:11.740Z,101557.63
2023-06-12T21:31:38.593Z,101553.47
2023-06-12T21:34:05.129Z,101549.06
2023-06-12T21:36:34.065Z,101549.38
2023-06-12T21:39:01.094Z,101554.66
2023-06-12T21:41:27.718Z,101552.25
2023-06-12T21:43:54.879Z,101557.41
2023-06-12T21:46:21.756Z,101557.88
2023-06-12T21:48:48.229Z,101556.75
2023-06-12T21:51:14.850Z,101551.47
2023-06-12T21:53:41.325Z,101563.19
2023-06-12T21:56:07.837Z,101562.78
2023-06-12T21:58:34.503Z,101562.88
2023-06-12T22:01:01.305Z,101567.41
2023-06-12T22:03:29.005Z,101561.56
2023-06-12T22:05:57.626Z,101568.88
2023-06-12T22:08:25.398Z,101575.03
2023-06-12T22:10:51.891Z,101571.66
2023-06-12T22:13:18.601Z,101565.44
2023-06-12T22:15:45.135Z,101568.22
2023-06-12T22:18:11.827Z,101571.97
2023-06-12T22:20:41.623Z,101570.97
2023-06-12T22:23:09.636Z,101564.34
2023-06-12T22:25:36.475Z,101567.22
2023-06-12T22:28:03.235Z,101567.41
2023-06-12T22:30:30.378Z,101564.28
2023-06-12T22:32:56.971Z,101562.44
2023-06-12T22:35:23.539Z,101559.69
2023-06-12T22:37:51.203Z,101565.09
2023-06-12T22:40:17.764Z,101572.31
2023-06-12T22:42:47.152Z,101564.53
2023-06-12T22:45:13.819Z,101563.41
2023-06-12T22:47:41.146Z,101565.09
2023-06-12T22:50:07.812Z,101558.34
2023-06-12T22:52:34.554Z,101554.56
2023-06-12T22:55:01.189Z,101559.50
2023-06-12T22:57:27.640Z,101563.94
2023-06-12T22:59:54.086Z,101564.84
2023-06-12T23:02:20.609Z,101560.22
2023-06-12T23:04:47.206Z,101557.09
2023-06-12T23:07:13.715Z,101553.75
2023-06-12T23:09:40.539Z,101568.19
2023-06-12T23:12:08.216Z,101568.72
2023-06-12T23:14:34.722Z,101572.13
2023-06-12T23:17:02.656Z,101564.75
2023-06-12T23:19:32.529Z,101565.06
2023-06-12T23:22:00.201Z,101561.25
2023-06-12T23:24:28.958Z,101565.41
2023-06-12T23:26:56.975Z,101562.28
2023-06-12T23:29:23.461Z,101563.16
2023-06-12T23:31:49.892Z,101560.38
2023-06-12T23:34:16.409Z,101559.25
2023-06-12T23:36:43.009Z,101559.53
2023-06-12T23:39:10.548Z,101561.25
2023-06-12T23:41:38.022Z,101570.56
2023-06-12T23:44:04.724Z,101562.09
2023-06-12T23:46:31.246Z,101562.63
2023-06-12T23:48:57.791Z,101558.75
2023-06-12T23:51:24.237Z,101561.59
2023-06-12T23:53:50.925Z,101559.19
2023-06-12T23:56:21.152Z,101556.69
2023-06-12T23:58:48.098Z,101555.34
